Time;durP1;ratioP1;P1;durP2;ratioP2;P2;SDS_P1;SDS_P2;PMS_P1;PMS_P2;Temp;Humidity;BMP_temperature;BMP_pressure;BME280_temperature;BME280_humidity;BME280_pressure;Samples;Min_cycle;Max_cycle;Signal;HPM_P1;HPM_P2
2021/05/19 00:00:03;;;;;;;16.17;14.47;;;9.70;99.90;;;;;;5005967;28;20356;-50
2021/05/19 00:02:36;;;;;;;16.10;14.50;;;9.70;99.90;;;;;;5004990;28;20231;-50
2021/05/19 00:05:07;;;;;;;15.63;14.00;;;9.60;99.90;;;;;;5005504;28;20401;-50
2021/05/19 00:07:35;;;;;;;14.70;13.20;;;9.60;99.90;;;;;;5007126;28;20305;-50
2021/05/19 00:10:03;;;;;;;14.97;13.53;;;9.60;99.90;;;;;;5010576;28;20449;-50
2021/05/19 00:12:31;;;;;;;15.40;13.90;;;9.50;99.90;;;;;;5042942;28;20241;-52
2021/05/19 00:14:59;;;;;;;14.60;12.90;;;9.50;99.90;;;;;;5011223;28;20236;-50
2021/05/19 00:17:27;;;;;;;15.17;13.67;;;9.50;99.90;;;;;;5029897;28;20290;-51
2021/05/19 00:19:54;;;;;;;15.27;12.90;;;9.50;99.90;;;;;;5030647;28;20259;-51
2021/05/19 00:22:23;;;;;;;14.90;13.43;;;9.40;99.90;;;;;;5031001;28;20389;-50
2021/05/19 00:24:51;;;;;;;14.17;12.67;;;9.40;99.90;;;;;;5041451;28;20233;-50
2021/05/19 00:27:19;;;;;;;15.43;13.83;;;9.40;99.90;;;;;;5051259;28;20625;-50
2021/05/19 00:29:47;;;;;;;15.20;13.60;;;9.40;99.90;;;;;;5048450;28;20622;-52
2021/05/19 00:32:15;;;;;;;14.83;13.33;;;9.40;99.90;;;;;;5030198;28;20597;-51
2021/05/19 00:34:44;;;;;;;15.40;13.93;;;9.40;99.90;;;;;;5031176;28;20239;-51
2021/05/19 00:37:12;;;;;;;15.47;13.60;;;9.40;99.90;;;;;;5031369;28;20708;-50
2021/05/19 00:39:40;;;;;;;15.27;13.67;;;9.40;99.90;;;;;;5027419;28;20722;-49
2021/05/19 00:42:11;;;;;;;15.77;14.20;;;9.40;99.90;;;;;;5010957;28;20245;-50
2021/05/19 00:44:39;;;;;;;14.53;13.03;;;9.50;99.90;;;;;;5027244;28;20238;-50
2021/05/19 00:47:07;;;;;;;15.70;14.20;;;9.60;99.90;;;;;;5028563;28;20249;-51
2021/05/19 00:49:37;;;;;;;16.03;14.43;;;9.60;99.90;;;;;;5025522;28;20249;-51
2021/05/19 00:52:05;;;;;;;13.73;12.23;;;9.60;99.90;;;;;;5025636;28;20247;-50
2021/05/19 00:54:34;;;;;;;14.73;13.17;;;9.60;99.90;;;;;;5010578;28;20256;-50
2021/05/19 00:57:03;;;;;;;15.47;14.00;;;9.60;99.90;;;;;;5026222;28;20696;-50
2021/05/19 00:59:31;;;;;;;14.53;12.70;;;9.60;99.90;;;;;;5009749;28;20250;-50
2021/05/19 01:02:04;;;;;;;16.37;14.67;;;9.60;99.90;;;;;;4988946;28;20916;-50
2021/05/19 01:04:32;;;;;;;15.50;13.83;;;9.60;99.90;;;;;;5022403;28;20312;-49
2021/05/19 01:07:23;;;;;;;14.83;13.33;;;9.60;99.90;;;;;;5029654;28;20240;-50
2021/05/19 01:09:50;;;;;;;15.27;13.80;;;9.50;99.90;;;;;;5032292;28;20580;-50
2021/05/19 01:12:22;;;;;;;15.30;13.67;;;9.50;99.90;;;;;;5050259;28;20597;-50
2021/05/19 01:14:53;;;;;;;16.07;14.37;;;9.50;99.90;;;;;;5030307;28;20245;-51
2021/05/19 01:17:22;;;;;;;15.13;13.60;;;9.40;99.90;;;;;;5030411;28;20320;-50
2021/05/19 01:19:53;;;;;;;16.30;14.60;;;9.40;99.90;;;;;;5045290;28;20239;-51
2021/05/19 01:22:25;;;;;;;15.47;13.87;;;9.40;99.90;;;;;;5035946;28;20287;-50
2021/05/19 01:24:56;;;;;;;16.27;14.57;;;9.30;99.90;;;;;;5042639;28;20317;-50
2021/05/19 01:27:25;;;;;;;15.80;13.53;;;9.30;99.90;;;;;;5025759;28;20239;-50
2021/05/19 01:30:00;;;;;;;15.50;13.90;;;9.20;99.90;;;;;;5023730;28;20295;-51
2021/05/19 01:32:28;;;;;;;13.50;12.10;;;9.30;99.90;;;;;;5030904;28;20231;-50
2021/05/19 01:34:56;;;;;;;14.93;13.43;;;9.30;99.90;;;;;;5023455;28;20237;-50
2021/05/19 01:37:25;;;;;;;13.33;11.97;;;9.30;99.90;;;;;;5022507;28;20324;-49
2021/05/19 01:39:56;;;;;;;14.20;12.10;;;9.20;99.90;;;;;;5012447;28;20715;-51
2021/05/19 01:42:24;;;;;;;13.83;12.30;;;9.20;99.90;;;;;;5029682;28;20247;-51
2021/05/19 01:44:56;;;;;;;14.87;13.37;;;9.10;99.90;;;;;;5044745;28;20237;-50
2021/05/19 01:47:46;;;;;;;15.37;13.87;;;9.20;99.90;;;;;;5046645;28;20265;-49
2021/05/19 01:50:17;;;;;;;14.33;12.93;;;9.20;99.90;;;;;;5042736;28;20791;-50
2021/05/19 01:52:47;;;;;;;15.43;13.83;;;9.10;99.90;;;;;;5024423;28;20354;-50
2021/05/19 01:55:17;;;;;;;14.77;13.37;;;9.10;99.90;;;;;;5024810;28;20302;-51
2021/05/19 01:57:48;;;;;;;13.80;12.57;;;9.10;99.90;;;;;;5040445;28;20576;-51
2021/05/19 02:00:22;;;;;;;13.57;12.17;;;9.10;99.90;;;;;;5044035;28;20236;-50
2021/05/19 02:02:56;;;;;;;15.23;13.67;;;9.10;99.90;;;;;;5010703;28;20230;-50
2021/05/19 02:05:27;;;;;;;15.97;14.27;;;9.10;99.90;;;;;;981400;28;10002121;-51
2021/05/19 02:07:58;;;;;;;15.00;13.53;;;9.10;99.90;;;;;;5008268;28;20479;-50
2021/05/19 02:10:28;;;;;;;14.33;12.87;;;9.00;99.90;;;;;;5031734;28;20240;-50
2021/05/19 02:12:59;;;;;;;14.43;13.03;;;9.00;99.90;;;;;;5027394;28;20239;-51
2021/05/19 02:15:29;;;;;;;15.33;13.73;;;8.90;99.90;;;;;;5044013;28;20244;-50
2021/05/19 02:17:58;;;;;;;14.10;12.70;;;8.90;99.90;;;;;;5051462;28;20693;-50
2021/05/19 02:20:27;;;;;;;14.67;13.13;;;8.90;99.90;;;;;;5025043;28;20279;-51
2021/05/19 02:22:57;;;;;;;14.70;13.20;;;8.90;99.90;;;;;;5044238;28;20244;-50
2021/05/19 02:25:24;;;;;;;13.80;12.50;;;8.90;99.90;;;;;;5036655;28;20241;-50
2021/05/19 02:27:53;;;;;;;13.67;12.27;;;8.80;99.90;;;;;;5016891;28;20243;-51
2021/05/19 02:30:27;;;;;;;14.83;13.30;;;8.80;99.90;;;;;;5034319;28;20241;-49
2021/05/19 02:32:56;;;;;;;14.10;12.70;;;8.70;99.90;;;;;;5008227;28;20244;-51
2021/05/19 02:35:24;;;;;;;14.57;13.17;;;8.70;99.90;;;;;;5007214;28;20226;-50
2021/05/19 02:38:01;;;;;;;14.07;12.73;;;8.60;99.90;;;;;;5007178;28;20232;-50
2021/05/19 02:40:30;;;;;;;13.70;12.30;;;8.60;99.90;;;;;;5022924;28;20256;-51
2021/05/19 02:42:58;;;;;;;15.23;13.63;;;8.60;99.90;;;;;;5024085;28;20233;-50
2021/05/19 02:45:30;;;;;;;15.20;13.60;;;8.50;99.90;;;;;;5008384;28;20648;-50
2021/05/19 02:47:58;;;;;;;15.30;13.77;;;8.50;99.90;;;;;;5008605;28;20234;-53
2021/05/19 02:50:26;;;;;;;15.33;13.83;;;8.60;99.90;;;;;;5005741;28;20255;-50
2021/05/19 02:52:54;;;;;;;14.90;13.50;;;8.50;99.90;;;;;;5008892;28;20245;-50
2021/05/19 02:55:22;;;;;;;15.40;13.80;;;8.60;99.90;;;;;;5008546;28;20233;-50
2021/05/19 02:57:50;;;;;;;15.23;13.73;;;8.60;99.90;;;;;;5008706;28;20704;-50
2021/05/19 03:00:19;;;;;;;15.70;14.20;;;8.60;99.90;;;;;;5014324;28;20730;-50
2021/05/19 03:02:47;;;;;;;16.07;14.40;;;8.50;99.90;;;;;;5027823;28;20244;-51
2021/05/19 03:05:15;;;;;;;17.13;15.43;;;8.50;99.90;;;;;;5010388;28;20237;-50
2021/05/19 03:07:44;;;;;;;17.13;15.33;;;8.50;99.90;;;;;;5008331;28;20616;-51
2021/05/19 03:10:14;;;;;;;15.87;14.03;;;8.40;99.90;;;;;;5008007;28;20237;-50
2021/05/19 03:12:43;;;;;;;17.80;15.70;;;8.50;99.90;;;;;;5008012;28;20256;-50
2021/05/19 03:15:14;;;;;;;17.07;15.27;;;8.40;99.90;;;;;;5007776;28;20291;-50
2021/05/19 03:17:42;;;;;;;15.70;14.20;;;8.40;99.90;;;;;;5008323;28;20237;-50
2021/05/19 03:20:12;;;;;;;15.37;13.77;;;8.40;99.90;;;;;;5007807;28;20229;-49
2021/05/19 03:22:40;;;;;;;18.07;15.93;;;8.40;99.90;;;;;;5008181;28;20685;-50
2021/05/19 03:25:09;;;;;;;15.43;13.87;;;8.40;99.90;;;;;;5011195;28;20256;-50
2021/05/19 03:27:37;;;;;;;16.77;15.07;;;8.40;99.90;;;;;;5013065;28;20247;-50
2021/05/19 03:30:11;;;;;;;19.13;15.77;;;8.40;99.90;;;;;;5022419;28;20252;-50
2021/05/19 03:32:39;;;;;;;17.00;14.70;;;8.30;99.90;;;;;;5014781;28;20287;-50
2021/05/19 03:35:10;;;;;;;17.07;15.13;;;8.40;99.90;;;;;;5034874;28;20315;-50
2021/05/19 03:37:39;;;;;;;19.03;16.00;;;8.30;99.90;;;;;;5027765;28;20232;-50
2021/05/19 03:40:12;;;;;;;18.27;16.20;;;8.30;99.90;;;;;;5027195;28;20244;-49
2021/05/19 03:42:41;;;;;;;18.87;16.87;;;8.30;99.90;;;;;;5027010;28;20240;-50
2021/05/19 03:45:15;;;;;;;20.80;16.70;;;8.30;99.90;;;;;;5032678;28;20231;-49
2021/05/19 03:47:45;;;;;;;18.73;16.70;;;8.30;99.90;;;;;;5047505;28;20235;-49
2021/05/19 03:50:13;;;;;;;26.23;18.50;;;8.20;99.90;;;;;;5062035;28;20228;-50
2021/05/19 03:52:41;;;;;;;18.63;16.73;;;8.20;99.90;;;;;;5037342;28;20786;-51
2021/05/19 03:55:12;;;;;;;18.13;16.33;;;8.20;99.90;;;;;;5029603;28;20585;-50
2021/05/19 03:57:41;;;;;;;20.90;18.80;;;8.20;99.90;;;;;;5027402;28;20367;-49
2021/05/19 04:00:15;;;;;;;20.80;18.67;;;8.20;99.90;;;;;;5027176;28;20691;-49
2021/05/19 04:02:48;;;;;;;19.13;17.13;;;8.30;99.90;;;;;;5018076;28;20245;-50
2021/05/19 04:05:17;;;;;;;21.30;18.53;;;8.30;99.90;;;;;;5007580;28;20230;-50
2021/05/19 04:07:45;;;;;;;20.77;18.57;;;8.30;99.90;;;;;;5007809;28;20265;-50
2021/05/19 04:10:13;;;;;;;20.70;18.50;;;8.20;99.90;;;;;;5007016;28;20260;-50
2021/05/19 04:12:41;;;;;;;20.07;17.97;;;8.30;99.90;;;;;;5006570;28;20240;-49
2021/05/19 04:15:12;;;;;;;20.90;18.80;;;8.30;99.90;;;;;;5007174;28;20240;-49
2021/05/19 04:17:40;;;;;;;20.40;18.30;;;8.40;99.90;;;;;;5007028;28;20627;-50
2021/05/19 04:20:09;;;;;;;19.97;17.87;;;8.40;99.90;;;;;;5014488;28;20578;-49
2021/05/19 04:22:37;;;;;;;19.43;17.53;;;8.40;99.90;;;;;;5007263;28;20292;-50
2021/05/19 04:25:07;;;;;;;19.23;17.23;;;8.50;99.90;;;;;;5005996;28;20240;-49
2021/05/19 04:27:36;;;;;;;20.30;18.20;;;8.50;99.90;;;;;;5007540;28;20273;-50
2021/05/19 04:30:06;;;;;;;19.60;17.50;;;8.50;99.90;;;;;;4994480;28;20244;-50
2021/05/19 04:32:35;;;;;;;18.60;16.80;;;8.50;99.90;;;;;;4990971;28;20238;-50
2021/05/19 04:35:06;;;;;;;19.03;17.13;;;8.60;99.90;;;;;;5026292;28;20228;-50
2021/05/19 04:37:34;;;;;;;20.47;17.57;;;8.60;99.90;;;;;;5026651;28;20255;-49
2021/05/19 04:40:05;;;;;;;21.70;18.33;;;8.70;99.90;;;;;;5023788;28;20364;-50
2021/05/19 04:42:34;;;;;;;19.47;17.37;;;8.80;99.90;;;;;;5021517;28;20240;-50
2021/05/19 04:45:03;;;;;;;20.47;18.40;;;8.80;99.90;;;;;;5029814;28;20283;-50
2021/05/19 04:47:32;;;;;;;20.03;17.80;;;8.90;99.90;;;;;;5033258;28;20236;-50
2021/05/19 04:50:00;;;;;;;22.20;19.33;;;8.90;99.90;;;;;;5029387;28;20239;-52
2021/05/19 04:52:28;;;;;;;20.30;18.20;;;9.00;99.90;;;;;;5040372;28;20237;-49
2021/05/19 04:54:59;;;;;;;19.50;17.60;;;8.90;99.90;;;;;;5037910;28;20236;-50
2021/05/19 04:57:27;;;;;;;20.10;17.30;;;9.00;99.90;;;;;;5022003;28;20248;-50
2021/05/19 04:59:54;;;;;;;17.70;15.90;;;9.10;99.90;;;;;;5006295;28;20237;-50
2021/05/19 05:02:22;;;;;;;18.57;16.63;;;9.10;99.90;;;;;;5004979;28;20257;-50
2021/05/19 05:04:52;;;;;;;18.87;16.90;;;9.20;99.90;;;;;;5026476;28;20279;-49
2021/05/19 05:07:22;;;;;;;18.37;16.47;;;9.20;99.90;;;;;;5028430;28;20725;-49
2021/05/19 05:09:49;;;;;;;18.23;16.43;;;9.10;99.90;;;;;;5028322;28;20247;-51
2021/05/19 05:12:17;;;;;;;18.30;16.37;;;9.10;99.90;;;;;;5028473;28;20638;-50
2021/05/19 05:14:46;;;;;;;17.67;15.97;;;9.20;99.90;;;;;;5029464;28;20256;-51
2021/05/19 05:17:16;;;;;;;17.53;15.73;;;9.20;99.90;;;;;;5048794;28;20734;-50
2021/05/19 05:19:44;;;;;;;17.70;16.03;;;9.30;99.90;;;;;;5035134;28;20265;-50
2021/05/19 05:22:12;;;;;;;19.33;17.37;;;9.40;99.90;;;;;;5027900;28;20244;-52
2021/05/19 05:24:41;;;;;;;19.27;17.33;;;9.50;99.90;;;;;;5025529;28;20707;-51
2021/05/19 05:27:09;;;;;;;18.77;16.97;;;9.60;99.90;;;;;;5028348;28;20232;-49
2021/05/19 05:29:39;;;;;;;20.03;18.13;;;9.60;99.90;;;;;;5028955;28;20230;-51
2021/05/19 05:32:08;;;;;;;19.23;17.23;;;9.80;99.90;;;;;;5046482;28;20320;-50
2021/05/19 05:34:36;;;;;;;19.50;17.53;;;10.00;99.90;;;;;;5031880;28;20236;-52
2021/05/19 05:37:05;;;;;;;18.43;16.63;;;10.10;99.90;;;;;;5024529;28;20646;-51
2021/05/19 05:39:33;;;;;;;17.43;15.63;;;10.20;99.90;;;;;;5028041;28;20239;-50
2021/05/19 05:42:01;;;;;;;19.37;17.47;;;10.20;99.90;;;;;;5027516;28;20237;-51
2021/05/19 05:44:29;;;;;;;17.83;16.03;;;10.40;99.90;;;;;;5028632;28;20237;-50
2021/05/19 05:46:58;;;;;;;17.67;15.87;;;10.40;99.90;;;;;;5027960;28;20275;-50
2021/05/19 05:49:26;;;;;;;18.73;16.80;;;10.40;99.90;;;;;;5027818;28;20319;-50
2021/05/19 05:51:53;;;;;;;18.90;17.10;;;10.50;99.90;;;;;;5028483;28;20251;-50
2021/05/19 05:54:21;;;;;;;20.03;17.93;;;10.60;99.90;;;;;;5028603;28;20247;-51
2021/05/19 05:56:49;;;;;;;21.03;18.83;;;10.60;99.90;;;;;;5018851;28;20526;-52
2021/05/19 05:59:18;;;;;;;20.33;18.33;;;10.70;99.90;;;;;;5009261;28;20242;-50
2021/05/19 06:01:46;;;;;;;17.83;16.10;;;10.90;99.90;;;;;;5010481;28;20741;-50
2021/05/19 06:04:13;;;;;;;19.80;17.23;;;11.10;99.90;;;;;;5003097;28;20251;-50
2021/05/19 06:06:41;;;;;;;19.23;17.30;;;11.30;99.90;;;;;;5020499;28;20262;-51
2021/05/19 06:09:09;;;;;;;18.83;16.93;;;11.50;99.90;;;;;;5009063;28;20239;-50
2021/05/19 06:11:37;;;;;;;18.17;16.27;;;11.50;99.90;;;;;;5009860;28;20262;-51
2021/05/19 06:14:05;;;;;;;18.63;16.73;;;11.60;99.90;;;;;;5006845;28;20703;-52
2021/05/19 06:16:34;;;;;;;18.53;16.83;;;11.70;99.90;;;;;;5029622;28;20275;-51
2021/05/19 06:19:03;;;;;;;16.67;14.87;;;11.80;99.90;;;;;;5022121;28;20240;-50
2021/05/19 06:21:31;;;;;;;16.90;15.30;;;12.10;99.90;;;;;;5014727;28;20354;-51
2021/05/19 06:23:59;;;;;;;16.20;14.67;;;12.20;99.90;;;;;;5027319;28;20309;-51
2021/05/19 06:26:28;;;;;;;16.10;14.60;;;12.20;99.90;;;;;;5009060;28;20575;-54
2021/05/19 06:28:55;;;;;;;15.50;14.07;;;12.20;99.90;;;;;;5008942;28;20236;-50
2021/05/19 06:31:23;;;;;;;15.60;14.00;;;12.20;99.90;;;;;;5007329;28;20254;-51
2021/05/19 06:33:52;;;;;;;15.60;14.00;;;12.10;99.90;;;;;;5007608;28;20624;-50
2021/05/19 06:36:23;;;;;;;16.23;14.57;;;12.10;99.90;;;;;;5006719;28;20465;-52
2021/05/19 06:38:50;;;;;;;15.50;14.10;;;12.10;99.90;;;;;;5020859;28;20293;-50
2021/05/19 06:41:18;;;;;;;17.20;15.50;;;12.00;99.90;;;;;;5003943;28;20258;-51
2021/05/19 06:43:46;;;;;;;16.33;14.73;;;12.10;99.90;;;;;;5003308;28;20240;-50
2021/05/19 06:46:14;;;;;;;16.67;15.03;;;12.10;99.90;;;;;;5005001;28;20499;-50
2021/05/19 06:48:42;;;;;;;17.10;15.43;;;12.20;99.90;;;;;;5005625;28;20318;-52
2021/05/19 06:51:11;;;;;;;16.50;14.97;;;12.20;99.90;;;;;;5005320;28;20653;-50
2021/05/19 06:53:38;;;;;;;17.07;15.37;;;12.30;99.90;;;;;;5005187;28;20231;-52
2021/05/19 06:56:07;;;;;;;14.60;13.27;;;12.30;99.90;;;;;;5010698;28;20234;-51
2021/05/19 06:58:35;;;;;;;14.40;13.00;;;12.30;99.90;;;;;;5030241;28;20331;-53
2021/05/19 07:01:03;;;;;;;14.50;13.00;;;12.50;99.90;;;;;;5019063;28;20237;-50
2021/05/19 07:03:32;;;;;;;13.13;11.80;;;12.60;99.90;;;;;;5026531;28;20242;-50
2021/05/19 07:06:00;;;;;;;12.90;11.73;;;12.80;99.90;;;;;;5010218;28;20243;-50
2021/05/19 07:08:29;;;;;;;12.17;10.97;;;13.30;99.90;;;;;;5006902;28;20235;-50
2021/05/19 07:10:57;;;;;;;12.70;11.50;;;13.40;99.90;;;;;;5007480;28;25556;-50
2021/05/19 07:13:28;;;;;;;11.97;10.83;;;13.30;99.90;;;;;;5007336;28;20689;-50
2021/05/19 07:15:57;;;;;;;12.43;11.23;;;13.20;99.90;;;;;;5007177;28;20235;-51
2021/05/19 07:18:25;;;;;;;11.20;10.10;;;13.20;99.90;;;;;;5020628;28;20307;-50
2021/05/19 07:20:53;;;;;;;11.93;10.73;;;13.20;99.90;;;;;;5021229;28;20253;-51
2021/05/19 07:23:21;;;;;;;11.87;10.43;;;13.20;99.90;;;;;;5004109;28;20263;-51
2021/05/19 07:25:50;;;;;;;10.87;9.77;;;13.10;99.90;;;;;;5008029;28;20290;-51
2021/05/19 07:28:17;;;;;;;11.13;10.03;;;13.30;99.90;;;;;;5008060;28;20276;-50
2021/05/19 07:30:47;;;;;;;10.10;9.10;;;13.90;99.90;;;;;;5007404;28;20329;-50
2021/05/19 07:33:20;;;;;;;10.83;9.83;;;14.50;99.90;;;;;;5007940;28;20326;-50
2021/05/19 07:35:48;;;;;;;11.00;9.90;;;14.70;99.90;;;;;;5006921;28;20394;-50
2021/05/19 07:38:16;;;;;;;10.63;9.67;;;14.90;99.90;;;;;;5022716;28;20245;-50
2021/05/19 07:40:46;;;;;;;11.70;10.60;;;14.60;99.90;;;;;;5007053;28;20268;-50
2021/05/19 07:43:16;;;;;;;11.53;10.40;;;14.50;99.90;;;;;;5007766;28;20974;-50
2021/05/19 07:45:44;;;;;;;12.03;10.93;;;14.80;99.90;;;;;;5020322;28;20238;-50
2021/05/19 07:48:12;;;;;;;10.37;9.40;;;15.20;99.90;;;;;;5025897;28;20245;-51
2021/05/19 07:50:39;;;;;;;10.90;9.90;;;15.20;99.90;;;;;;5016009;28;20587;-50
2021/05/19 07:53:06;;;;;;;10.57;9.67;;;15.10;99.90;;;;;;5027907;28;20725;-49
2021/05/19 07:55:43;;;;;;;11.17;10.17;;;14.90;99.90;;;;;;5014776;28;20241;-49
2021/05/19 07:58:14;;;;;;;11.10;10.00;;;14.70;99.90;;;;;;5007761;28;20243;-49
2021/05/19 08:00:55;;;;;;;11.87;10.77;;;14.70;99.90;;;;;;5006595;28;20248;-53
2021/05/19 08:03:22;;;;;;;12.30;11.00;;;14.70;99.90;;;;;;5007432;28;20287;-49
2021/05/19 08:05:48;;;;;;;11.63;10.53;;;15.10;99.90;;;;;;5006047;28;20240;-51
2021/05/19 08:08:15;;;;;;;10.67;9.67;;;15.70;99.90;;;;;;5006886;28;20243;-50
2021/05/19 08:10:43;;;;;;;11.67;10.57;;;15.60;99.90;;;;;;5006128;28;20236;-50
2021/05/19 08:13:10;;;;;;;11.37;10.33;;;15.40;99.90;;;;;;5006743;28;20287;-50
2021/05/19 08:15:37;;;;;;;10.80;9.70;;;16.10;99.90;;;;;;5029225;28;20806;-50
2021/05/19 08:18:07;;;;;;;9.20;8.40;;;16.70;99.90;;;;;;5024323;28;20714;-50
2021/05/19 08:20:35;;;;;;;9.90;8.97;;;17.20;99.90;;;;;;5010642;28;20793;-51
2021/05/19 08:23:03;;;;;;;9.37;8.47;;;17.50;99.90;;;;;;5003205;28;20266;-50
2021/05/19 08:25:31;;;;;;;9.17;8.30;;;17.60;99.90;;;;;;5008467;28;20231;-51
2021/05/19 08:27:59;;;;;;;8.80;7.90;;;17.80;99.90;;;;;;5005621;28;20237;-50
2021/05/19 08:30:27;;;;;;;8.70;7.80;;;17.20;99.90;;;;;;5002011;28;20706;-49
2021/05/19 08:32:55;;;;;;;9.13;7.10;;;16.80;99.90;;;;;;5003074;28;20748;-50
2021/05/19 08:35:24;;;;;;;6.93;6.27;;;16.60;99.90;;;;;;5006050;28;20704;-49
2021/05/19 08:37:52;;;;;;;6.57;5.97;;;16.60;99.90;;;;;;5010143;28;20313;-49
2021/05/19 08:40:20;;;;;;;6.03;5.53;;;16.70;99.90;;;;;;5014703;28;20626;-49
2021/05/19 08:42:49;;;;;;;7.43;5.97;;;16.90;99.90;;;;;;5029021;28;20233;-50
2021/05/19 08:45:17;;;;;;;6.43;5.83;;;17.30;99.90;;;;;;5026663;28;20630;-50
2021/05/19 08:47:46;;;;;;;5.87;5.30;;;17.10;99.90;;;;;;5007787;28;20240;-50
2021/05/19 08:50:16;;;;;;;5.80;5.20;;;16.80;99.90;;;;;;5006569;28;20806;-50
2021/05/19 08:52:46;;;;;;;6.03;5.43;;;16.50;99.90;;;;;;5007389;28;20233;-49
2021/05/19 08:55:18;;;;;;;5.83;5.33;;;16.40;99.90;;;;;;5022862;28;20244;-51
2021/05/19 08:57:46;;;;;;;6.50;5.20;;;16.30;99.90;;;;;;5006280;28;20237;-50
2021/05/19 09:00:15;;;;;;;4.57;4.17;;;16.50;99.90;;;;;;5007655;28;20244;-49
2021/05/19 09:03:05;;;;;;;5.83;4.57;;;17.20;99.90;;;;;;5006678;28;20480;-49
2021/05/19 09:05:35;;;;;;;4.57;3.93;;;18.00;99.90;;;;;;5005347;28;20241;-52
2021/05/19 09:08:05;;;;;;;3.50;3.20;;;18.60;99.90;;;;;;5004190;28;20552;-49
2021/05/19 09:10:34;;;;;;;5.10;3.80;;;18.80;99.90;;;;;;5014594;28;20326;-50
2021/05/19 09:13:02;;;;;;;4.00;3.60;;;19.20;99.90;;;;;;5024199;28;20231;-50
2021/05/19 09:15:47;;;;;;;3.70;3.40;;;19.50;99.90;;;;;;5023604;28;20661;-50
2021/05/19 09:18:15;;;;;;;3.70;3.40;;;19.90;99.90;;;;;;5026917;28;20247;-50
2021/05/19 09:20:45;;;;;;;6.20;3.93;;;20.50;99.90;;;;;;5013827;28;20247;-50
2021/05/19 09:23:19;;;;;;;6.63;4.07;;;20.70;99.90;;;;;;5013948;28;20238;-50
2021/05/19 09:26:06;;;;;;;4.43;3.53;;;20.00;99.90;;;;;;5023908;28;20323;-51
2021/05/19 09:28:34;;;;;;;4.57;3.97;;;19.60;99.90;;;;;;5026723;28;20297;-50
2021/05/19 09:31:02;;;;;;;4.60;3.73;;;20.00;99.90;;;;;;5027332;28;20234;-51
2021/05/19 09:33:30;;;;;;;4.10;3.70;;;20.20;99.90;;;;;;5028080;28;20621;-49
2021/05/19 09:36:15;;;;;;;3.77;3.40;;;20.60;99.90;;;;;;5026702;28;20720;-50
2021/05/19 09:38:45;;;;;;;4.60;4.17;;;20.20;99.90;;;;;;5013452;28;20638;-50
2021/05/19 09:41:32;;;;;;;4.30;3.70;;;20.00;99.90;;;;;;5007289;28;20267;-50
2021/05/19 09:44:01;;;;;;;4.03;3.20;;;20.10;99.90;;;;;;5007781;28;20378;-50
2021/05/19 09:46:37;;;;;;;3.50;3.10;;;20.60;99.90;;;;;;5008686;28;20243;-49
2021/05/19 09:49:17;;;;;;;4.33;3.60;;;21.20;99.90;;;;;;5022977;28;20240;-50
2021/05/19 09:51:49;;;;;;;4.03;3.63;;;21.30;99.90;;;;;;5028411;28;20594;-49
2021/05/19 09:54:30;;;;;;;4.53;3.43;;;21.50;99.90;;;;;;5029173;28;20232;-50
2021/05/19 09:57:00;;;;;;;4.97;3.93;;;21.20;99.90;;;;;;5029016;28;20247;-50
2021/05/19 09:59:29;;;;;;;3.77;3.43;;;20.80;99.90;;;;;;5028689;28;20286;-51
2021/05/19 10:02:00;;;;;;;5.27;3.23;;;20.60;99.90;;;;;;5027265;28;20290;-50
2021/05/19 10:04:31;;;;;;;4.13;3.37;;;20.50;99.90;;;;;;5007568;28;20642;-50
2021/05/19 10:07:00;;;;;;;5.20;3.53;;;20.80;99.90;;;;;;5004624;28;20752;-51
2021/05/19 10:09:29;;;;;;;3.70;3.40;;;21.40;99.90;;;;;;5000971;28;20707;-51
2021/05/19 10:11:58;;;;;;;4.87;3.30;;;22.00;99.90;;;;;;5005977;28;20760;-50
2021/05/19 10:14:26;;;;;;;3.83;3.37;;;21.70;99.90;;;;;;5004961;28;20322;-53
2021/05/19 10:17:01;;;;;;;3.23;2.93;;;20.90;99.90;;;;;;5008183;28;20288;-49
2021/05/19 10:19:34;;;;;;;5.17;3.07;;;20.30;99.90;;;;;;5008166;28;20778;-50
2021/05/19 10:22:08;;;;;;;3.23;2.50;;;19.70;99.90;;;;;;5007838;28;20310;-51
2021/05/19 10:24:47;;;;;;;2.90;2.60;;;19.40;99.90;;;;;;5015795;28;20233;-50
2021/05/19 10:27:18;;;;;;;3.80;2.90;;;19.00;99.90;;;;;;5025633;28;20244;-50
2021/05/19 10:29:52;;;;;;;3.40;2.60;;;18.70;99.90;;;;;;5027461;28;20231;-50
2021/05/19 10:32:34;;;;;;;3.73;3.07;;;19.20;99.90;;;;;;5028173;28;20239;-51
2021/05/19 10:35:07;;;;;;;3.30;3.00;;;19.70;99.90;;;;;;5028100;28;20453;-50
2021/05/19 10:37:46;;;;;;;4.37;2.90;;;19.40;99.90;;;;;;5026951;28;20233;-49
2021/05/19 10:40:32;;;;;;;4.23;3.00;;;19.50;99.90;;;;;;5025420;28;20236;-52
2021/05/19 10:43:03;;;;;;;4.47;2.90;;;19.30;99.90;;;;;;5009153;28;20238;-50
2021/05/19 10:45:47;;;;;;;4.53;2.70;;;19.20;99.90;;;;;;5027394;28;20250;-50
2021/05/19 10:48:30;;;;;;;3.50;2.70;;;19.20;99.90;;;;;;5027937;28;20254;-49
2021/05/19 10:51:04;;;;;;;4.33;2.47;;;18.80;99.90;;;;;;5011281;28;20319;-49
2021/05/19 10:59:18;;;;;;;3.37;2.50;;;19.10;99.90;;;;;;5008700;28;20247;-50
2021/05/19 11:02:07;;;;;;;2.80;2.00;;;19.60;99.90;;;;;;5012365;28;20338;-48
2021/05/19 11:04:35;;;;;;;3.00;2.00;;;20.80;99.90;;;;;;5004515;28;20246;-50
2021/05/19 11:07:08;;;;;;;1.83;1.60;;;21.60;99.90;;;;;;5025799;28;20328;-48
2021/05/19 11:09:40;;;;;;;2.77;2.00;;;21.90;99.90;;;;;;5025724;28;20232;-49
2021/05/19 11:12:39;;;;;;;2.30;1.90;;;21.60;99.90;;;;;;5021055;28;20599;-48
2021/05/19 11:15:59;;;;;;;2.20;1.63;;;21.10;99.90;;;;;;5028089;28;20244;-50
2021/05/19 11:21:16;;;;;;;3.20;1.90;;;20.70;99.90;;;;;;5002779;28;20238;-51
2021/05/19 11:24:08;;;;;;;4.87;1.87;;;20.80;99.90;;;;;;5006831;28;20250;-48
2021/05/19 11:26:41;;;;;;;3.10;1.97;;;20.90;99.90;;;;;;5007774;28;20324;-49
2021/05/19 11:29:13;;;;;;;2.43;1.70;;;21.60;99.90;;;;;;5007443;28;20237;-48
2021/05/19 11:31:44;;;;;;;3.23;1.60;;;22.10;99.90;;;;;;5006927;28;20248;-48
2021/05/19 11:34:14;;;;;;;3.17;1.90;;;22.10;99.90;;;;;;5023114;28;20592;-49
2021/05/19 11:36:44;;;;;;;2.83;1.80;;;21.20;99.90;;;;;;5025275;28;20248;-49
2021/05/19 11:39:30;;;;;;;3.23;1.70;;;20.50;99.90;;;;;;5027304;28;20280;-50
2021/05/19 11:42:23;;;;;;;2.43;1.77;;;20.00;99.90;;;;;;5014968;28;20267;-49
2021/05/19 11:44:57;;;;;;;3.00;1.60;;;19.30;99.90;;;;;;5008908;28;20239;-48
2021/05/19 11:47:36;;;;;;;2.27;1.60;;;18.50;99.90;;;;;;5026184;28;20614;-49
2021/05/19 11:50:12;;;;;;;2.97;1.50;;;17.70;99.90;;;;;;5040384;28;20242;-49
2021/05/19 11:52:42;;;;;;;1.40;1.10;;;17.00;99.90;;;;;;5009903;28;20234;-49
2021/05/19 11:55:35;;;;;;;1.83;1.20;;;16.70;99.90;;;;;;5024544;28;20654;-49
2021/05/19 11:58:09;;;;;;;4.07;1.43;;;16.50;99.90;;;;;;5022180;28;20248;-49
2021/05/19 12:00:42;;;;;;;1.50;1.30;;;16.40;99.90;;;;;;5017201;28;20751;-48
2021/05/19 12:03:11;;;;;;;1.30;1.17;;;16.50;99.90;;;;;;5002342;28;20238;-52
2021/05/19 12:05:48;;;;;;;2.07;1.27;;;16.70;99.90;;;;;;4999973;28;20261;-48
2021/05/19 12:08:19;;;;;;;0.97;0.80;;;16.90;99.90;;;;;;5002352;28;20296;-50
2021/05/19 12:10:49;;;;;;;1.23;1.03;;;17.10;99.90;;;;;;5004490;28;20234;-49
2021/05/19 12:13:26;;;;;;;1.67;1.10;;;17.40;99.90;;;;;;5008373;28;20240;-48
2021/05/19 12:15:56;;;;;;;1.17;1.03;;;17.60;99.90;;;;;;5002259;28;20769;-49
2021/05/19 12:18:24;;;;;;;1.70;1.00;;;17.60;99.90;;;;;;5031054;28;21141;-48
2021/05/19 12:20:52;;;;;;;1.30;0.97;;;17.70;99.90;;;;;;5027288;28;20237;-48
2021/05/19 12:23:21;;;;;;;1.93;1.10;;;17.90;99.90;;;;;;5009209;28;20298;-48
2021/05/19 12:25:49;;;;;;;3.27;1.27;;;18.10;99.90;;;;;;5009335;28;20225;-49
2021/05/19 12:28:22;;;;;;;2.93;1.40;;;18.30;99.90;;;;;;5009466;28;20657;-52
2021/05/19 12:30:52;;;;;;;1.50;1.40;;;18.70;99.90;;;;;;5009068;28;20754;-48
2021/05/19 12:33:23;;;;;;;2.70;1.73;;;18.90;99.90;;;;;;5009765;28;20236;-48
2021/05/19 12:35:51;;;;;;;3.33;1.50;;;19.10;99.90;;;;;;5008633;28;20232;-50
2021/05/19 12:38:24;;;;;;;2.33;1.40;;;19.10;99.90;;;;;;5003559;28;20763;-49
2021/05/19 12:40:54;;;;;;;1.57;1.30;;;19.10;99.90;;;;;;5003218;28;20798;-49
2021/05/19 12:43:27;;;;;;;2.37;1.80;;;19.10;99.90;;;;;;4989394;28;20251;-51
2021/05/19 12:46:10;;;;;;;3.47;1.50;;;19.10;99.90;;;;;;4997641;28;20318;-49
2021/05/19 12:48:52;;;;;;;2.47;1.70;;;19.30;99.90;;;;;;5021732;28;20250;-48
2021/05/19 12:51:20;;;;;;;4.00;2.03;;;19.40;99.90;;;;;;5025658;28;20259;-49
2021/05/19 12:53:55;;;;;;;3.10;2.00;;;19.40;99.90;;;;;;5005554;28;20319;-50
2021/05/19 12:56:25;;;;;;;3.60;1.70;;;19.50;99.90;;;;;;5031349;28;20266;-49
2021/05/19 12:58:56;;;;;;;1.60;1.50;;;19.50;99.90;;;;;;5018958;28;20231;-48
2021/05/19 13:01:27;;;;;;;4.93;1.93;;;19.40;99.90;;;;;;5009422;28;20658;-49
2021/05/19 13:03:58;;;;;;;3.77;1.90;;;19.40;99.90;;;;;;5006979;28;20592;-48